Time;durP1;ratioP1;P1;durP2;ratioP2;P2;SDS_P1;SDS_P2;PMS_P1;PMS_P2;Temp;Humidity;BMP_temperature;BMP_pressure;BME280_temperature;BME280_humidity;BME280_pressure;Samples;Min_cycle;Max_cycle;Signal;HPM_P1;HPM_P2
2022/11/10 03:00:42;;;;;;;5.70;5.30;;;9.80;99.90;;;;;;6018819;23;20208;31
2022/11/10 03:03:28;;;;;;;5.30;4.80;;;9.70;99.90;;;;;;4888347;29;20211;-81
2022/11/10 03:06:14;;;;;;;3.50;3.20;;;9.70;99.90;;;;;;4888637;29;20220;-82
2022/11/10 03:08:59;;;;;;;5.70;5.30;;;9.60;99.90;;;;;;4888062;29;20333;-82
2022/11/10 03:11:45;;;;;;;4.00;3.70;;;9.50;99.90;;;;;;4893006;29;20235;-82
2022/11/10 03:14:34;;;;;;;8.60;8.10;;;9.50;99.90;;;;;;4883520;29;20212;-79
2022/11/10 03:17:19;;;;;;;5.27;4.87;;;9.50;99.90;;;;;;4897261;29;20211;-82
2022/11/10 03:20:07;;;;;;;5.53;5.13;;;9.50;99.90;;;;;;4882367;29;20604;-82
2022/11/10 03:22:53;;;;;;;9.73;9.13;;;9.50;99.90;;;;;;4892083;29;20231;-82
2022/11/10 03:25:38;;;;;;;5.03;4.63;;;9.50;99.90;;;;;;4884064;29;20220;-82
2022/11/10 03:28:24;;;;;;;4.63;4.27;;;9.50;99.90;;;;;;4887526;29;20338;-82
2022/11/10 03:31:09;;;;;;;4.20;3.90;;;9.50;99.90;;;;;;4885440;29;20231;-82
2022/11/10 03:33:55;;;;;;;6.63;5.90;;;9.40;99.90;;;;;;4889962;29;20710;-82
2022/11/10 03:36:42;;;;;;;4.73;4.30;;;9.30;99.90;;;;;;4874840;29;20312;-83
2022/11/10 03:39:27;;;;;;;4.10;3.70;;;9.30;99.90;;;;;;4886571;29;20228;-83
2022/11/10 03:42:13;;;;;;;5.73;5.23;;;9.20;99.90;;;;;;4890790;29;20235;-81
2022/11/10 03:44:58;;;;;;;7.00;6.50;;;9.20;99.90;;;;;;4887973;29;20352;-82
2022/11/10 03:47:46;;;;;;;7.97;7.33;;;9.10;99.90;;;;;;4884410;29;20214;-82
2022/11/10 03:50:31;;;;;;;10.70;9.80;;;9.00;99.90;;;;;;4878364;29;20215;-82
2022/11/10 03:53:18;;;;;;;9.97;9.33;;;9.00;99.90;;;;;;4891259;29;20208;-82
2022/11/10 03:56:05;;;;;;;8.53;7.83;;;9.00;99.90;;;;;;4886405;29;20208;-82
2022/11/10 03:58:51;;;;;;;13.30;12.43;;;8.90;99.90;;;;;;4885098;29;20224;-82
2022/11/10 04:01:36;;;;;;;13.30;12.50;;;8.80;99.90;;;;;;4873088;29;20324;-83
2022/11/10 04:10:34;;;;;;;14.50;13.60;;;8.40;99.90;;;;;;4888456;29;20283;-83
2022/11/10 04:16:30;;;;;;;14.80;13.90;;;8.40;99.90;;;;;;4892333;29;20207;-83
2022/11/10 04:19:18;;;;;;;14.67;13.77;;;8.30;99.90;;;;;;4884681;29;20240;-84
2022/11/10 04:22:04;;;;;;;14.80;13.80;;;8.30;99.90;;;;;;4893467;29;20279;-80
2022/11/10 04:24:49;;;;;;;15.30;14.30;;;8.20;99.90;;;;;;4888860;29;20582;-82
2022/11/10 04:27:36;;;;;;;14.57;13.73;;;8.20;99.90;;;;;;4881157;29;20212;-84
2022/11/10 04:30:21;;;;;;;15.87;14.97;;;8.10;99.90;;;;;;4890651;29;20200;-81
2022/11/10 04:33:07;;;;;;;15.40;14.40;;;8.10;99.90;;;;;;4893109;29;20499;-84
2022/11/10 04:35:52;;;;;;;14.87;14.07;;;8.20;99.90;;;;;;4883913;29;20215;-82
2022/11/10 04:38:38;;;;;;;15.43;14.43;;;8.10;99.90;;;;;;4881974;29;20328;-82
2022/11/10 04:41:25;;;;;;;15.53;14.50;;;8.10;99.90;;;;;;4880706;29;20239;-83
2022/11/10 04:44:12;;;;;;;16.33;15.17;;;8.00;99.90;;;;;;4887745;29;20214;-83
2022/11/10 04:46:57;;;;;;;15.87;14.60;;;8.00;99.90;;;;;;4883254;29;20213;-81
2022/11/10 04:49:43;;;;;;;15.83;14.93;;;7.90;99.90;;;;;;4885856;29;20212;-82
2022/11/10 04:52:29;;;;;;;14.50;13.60;;;7.80;99.90;;;;;;4886167;29;20234;-81
2022/11/10 04:55:15;;;;;;;14.50;13.60;;;7.70;99.90;;;;;;4885173;29;20213;-81
2022/11/10 04:58:00;;;;;;;14.93;14.03;;;7.60;99.90;;;;;;4884168;29;20212;-81
2022/11/10 05:00:47;;;;;;;15.20;14.20;;;7.50;99.90;;;;;;4879536;29;20244;-81
2022/11/10 05:03:33;;;;;;;16.13;15.10;;;7.40;99.90;;;;;;4886498;29;20789;-81
2022/11/10 05:06:18;;;;;;;15.33;14.30;;;7.30;99.90;;;;;;4887884;29;20219;-81
2022/11/10 05:09:04;;;;;;;15.47;14.57;;;7.30;99.90;;;;;;4885707;29;20211;-80
2022/11/10 05:11:50;;;;;;;14.80;13.90;;;7.30;99.90;;;;;;4879250;29;20234;-81
2022/11/10 05:14:35;;;;;;;15.83;14.83;;;7.30;99.90;;;;;;4879712;29;20230;-81
2022/11/10 05:17:22;;;;;;;15.43;14.47;;;7.30;99.90;;;;;;4886349;29;20215;-81
2022/11/10 05:20:09;;;;;;;14.93;14.03;;;7.30;99.90;;;;;;4882120;29;20329;-80
2022/11/10 05:25:58;;;;;;;16.83;15.63;;;7.30;99.90;;;;;;4886925;29;20239;-81
2022/11/10 05:28:45;;;;;;;18.00;16.80;;;7.20;99.90;;;;;;4878329;29;20216;-81
2022/11/10 05:31:30;;;;;;;18.00;16.60;;;7.20;99.90;;;;;;4885108;29;20274;-81
2022/11/10 05:34:17;;;;;;;16.97;15.77;;;7.20;99.90;;;;;;4888517;29;20685;-81
2022/11/10 05:37:03;;;;;;;17.37;16.30;;;7.20;99.90;;;;;;4883029;29;20219;-81
2022/11/10 05:39:49;;;;;;;17.50;16.40;;;7.10;99.90;;;;;;4883802;29;20296;-81
2022/11/10 05:42:34;;;;;;;17.53;16.43;;;7.10;99.90;;;;;;4885645;29;20298;-81
2022/11/10 05:45:21;;;;;;;17.90;16.80;;;7.00;99.90;;;;;;4886473;29;20205;-81
2022/11/10 05:48:07;;;;;;;17.87;16.77;;;7.00;99.90;;;;;;4884974;29;20266;-81
2022/11/10 05:50:53;;;;;;;17.90;16.70;;;7.00;99.90;;;;;;4880527;29;20234;-81
2022/11/10 05:53:39;;;;;;;17.93;16.83;;;7.00;99.90;;;;;;4886349;29;20320;-81
2022/11/10 05:56:25;;;;;;;17.70;16.50;;;7.00;99.90;;;;;;4889976;29;20285;-80
2022/11/10 05:59:10;;;;;;;18.13;17.13;;;7.00;99.90;;;;;;4886792;29;20701;-80
2022/11/10 06:01:56;;;;;;;18.23;17.10;;;6.90;99.90;;;;;;4884151;29;20244;-81
2022/11/10 06:04:41;;;;;;;18.40;17.30;;;7.00;99.90;;;;;;4882346;29;20253;-81
2022/11/10 06:07:28;;;;;;;26.23;24.00;;;6.90;99.90;;;;;;4881662;29;20210;-81
2022/11/10 06:10:14;;;;;;;23.67;21.80;;;6.90;99.90;;;;;;4887486;29;20209;-81
2022/11/10 06:12:59;;;;;;;19.43;18.13;;;6.80;99.90;;;;;;4885673;29;20214;-81
2022/11/10 06:15:45;;;;;;;18.97;17.77;;;6.70;99.90;;;;;;4882031;29;20759;-81
2022/11/10 06:18:30;;;;;;;19.60;18.30;;;6.70;99.90;;;;;;4880199;29;20263;-81
2022/11/10 06:21:16;;;;;;;19.47;18.13;;;6.70;99.90;;;;;;4881671;29;20754;-81
2022/11/10 06:24:02;;;;;;;18.90;17.67;;;6.70;99.90;;;;;;4885054;29;20269;-81
2022/11/10 06:26:48;;;;;;;18.97;17.77;;;6.70;99.90;;;;;;4883636;29;20223;-81
2022/11/10 06:29:33;;;;;;;19.10;17.90;;;6.70;99.90;;;;;;4879824;29;20754;-81
2022/11/10 06:32:19;;;;;;;17.83;16.80;;;6.70;99.90;;;;;;4888101;29;20280;-80
2022/11/10 06:35:05;;;;;;;18.30;17.00;;;6.80;99.90;;;;;;4889607;29;20222;-81
2022/11/10 06:37:58;;;;;;;18.47;17.00;;;6.80;99.90;;;;;;4898242;29;20210;-81
2022/11/10 06:40:45;;;;;;;18.77;17.60;;;6.80;99.90;;;;;;4891022;29;20236;-81
2022/11/10 06:43:31;;;;;;;19.13;17.43;;;6.90;99.90;;;;;;4883952;29;20215;-81
2022/11/10 06:46:16;;;;;;;17.47;16.47;;;6.90;99.90;;;;;;4887981;29;20204;-81
2022/11/10 06:49:02;;;;;;;17.17;16.07;;;6.90;99.90;;;;;;4882030;29;20337;-80
2022/11/10 06:51:47;;;;;;;17.20;16.10;;;7.00;99.90;;;;;;4883128;29;20233;-81
2022/11/10 06:54:33;;;;;;;18.00;16.70;;;7.00;99.90;;;;;;4884836;29;20597;-80
2022/11/10 06:57:20;;;;;;;17.60;16.50;;;7.10;99.90;;;;;;4884353;29;20259;-81
2022/11/10 07:00:07;;;;;;;18.17;16.97;;;7.10;99.90;;;;;;4881461;29;20309;-81
2022/11/10 07:02:59;;;;;;;12.87;11.83;;;7.10;99.90;;;;;;4885087;29;20218;-83
2022/11/10 07:05:45;;;;;;;6.70;6.10;;;7.10;99.90;;;;;;4881857;29;20569;-84
2022/11/10 07:08:30;;;;;;;10.20;9.33;;;7.20;99.90;;;;;;4882232;29;20279;-83
2022/11/10 07:11:16;;;;;;;7.57;6.83;;;7.30;99.90;;;;;;4880045;29;20242;-83
2022/11/10 07:14:02;;;;;;;6.83;5.90;;;7.50;99.90;;;;;;4891639;29;20282;-82
2022/11/10 07:16:48;;;;;;;6.30;5.70;;;7.60;99.90;;;;;;4869332;29;20215;-82
2022/11/10 07:19:34;;;;;;;6.83;6.13;;;7.80;99.90;;;;;;4882710;29;20252;-82
2022/11/10 07:22:19;;;;;;;11.73;10.93;;;7.80;99.90;;;;;;4895349;29;20285;-83
2022/11/10 07:25:05;;;;;;;12.63;11.73;;;7.90;99.90;;;;;;4882618;29;20746;-83
2022/11/10 07:27:53;;;;;;;14.97;13.97;;;8.00;99.90;;;;;;4887404;29;20359;-82
2022/11/10 07:30:40;;;;;;;12.10;11.20;;;8.10;99.90;;;;;;4885206;29;20292;-82
2022/11/10 07:33:26;;;;;;;10.57;9.60;;;8.20;99.90;;;;;;4892909;29;20308;-82
2022/11/10 07:36:11;;;;;;;11.10;10.30;;;8.30;99.90;;;;;;4892078;29;20738;-82
2022/11/10 07:38:57;;;;;;;8.93;8.23;;;8.30;99.90;;;;;;4885298;29;20235;-82
2022/11/10 07:41:42;;;;;;;8.53;7.93;;;8.40;99.90;;;;;;4881817;29;20236;-82
2022/11/10 07:44:28;;;;;;;12.50;11.70;;;8.60;99.90;;;;;;4870933;29;20211;-82
2022/11/10 07:47:15;;;;;;;10.63;9.90;;;8.70;99.90;;;;;;4887623;29;20288;-82
2022/11/10 07:50:00;;;;;;;5.50;5.00;;;8.80;99.90;;;;;;4888583;29;20223;-82
2022/11/10 07:52:46;;;;;;;8.90;8.20;;;9.00;99.90;;;;;;4880344;29;20247;-82
2022/11/10 07:55:31;;;;;;;11.60;10.80;;;9.20;99.90;;;;;;4874621;29;20707;-82
2022/11/10 07:58:18;;;;;;;16.37;15.10;;;9.40;99.90;;;;;;4879863;29;20567;-81
2022/11/10 08:01:04;;;;;;;15.07;14.07;;;9.60;99.90;;;;;;4877080;29;20253;-82
2022/11/10 08:03:51;;;;;;;15.03;13.80;;;9.90;99.90;;;;;;4879909;29;20358;-82
2022/11/10 08:06:36;;;;;;;6.87;5.70;;;10.20;99.90;;;;;;4884699;29;20252;-82
2022/11/10 08:09:22;;;;;;;11.07;9.80;;;10.60;99.90;;;;;;4884204;29;20292;-81
2022/11/10 08:12:07;;;;;;;6.43;5.43;;;10.90;99.90;;;;;;4878483;29;20253;-82
2022/11/10 08:14:52;;;;;;;14.77;13.47;;;11.20;99.90;;;;;;4882284;29;20583;-81
2022/11/10 08:17:38;;;;;;;8.83;8.03;;;11.60;99.90;;;;;;4877888;29;20243;-82
2022/11/10 08:20:25;;;;;;;8.97;8.10;;;11.80;99.90;;;;;;4884521;29;20364;-82
2022/11/10 08:23:10;;;;;;;7.53;7.03;;;12.00;99.90;;;;;;4882164;29;20238;-82
2022/11/10 08:25:59;;;;;;;4.40;4.00;;;12.20;99.90;;;;;;4882936;29;20216;-82
2022/11/10 08:28:44;;;;;;;5.53;5.03;;;12.40;99.90;;;;;;4879702;29;20215;-82
2022/11/10 08:31:31;;;;;;;7.70;7.10;;;12.70;99.90;;;;;;4878777;29;20239;-81
2022/11/10 08:34:17;;;;;;;8.23;7.63;;;12.90;99.90;;;;;;4885817;29;20212;-82
2022/11/10 08:37:04;;;;;;;4.20;3.77;;;13.00;99.90;;;;;;4881336;29;20257;-80
2022/11/10 08:39:49;;;;;;;7.37;5.90;;;13.20;99.90;;;;;;4887475;29;20279;-82
2022/11/10 08:42:35;;;;;;;6.00;5.37;;;13.40;99.90;;;;;;4879621;29;20736;-82
2022/11/10 08:45:20;;;;;;;7.70;5.00;;;13.40;99.90;;;;;;4888484;29;20260;-82
2022/11/10 08:48:08;;;;;;;4.73;4.33;;;13.40;99.90;;;;;;4884514;29;20212;-82
2022/11/10 08:50:54;;;;;;;5.10;4.60;;;13.40;99.90;;;;;;4891953;29;20312;-82
2022/11/10 08:53:40;;;;;;;10.77;10.07;;;13.40;99.90;;;;;;4880213;29;20208;-83
2022/11/10 08:56:26;;;;;;;11.00;10.20;;;13.40;99.90;;;;;;4879094;29;20960;-82
2022/11/10 08:59:11;;;;;;;10.50;9.80;;;13.30;99.90;;;;;;4879629;29;20260;-81
2022/11/10 09:01:58;;;;;;;10.30;9.60;;;13.30;99.90;;;;;;4879389;29;20236;-82
2022/11/10 09:04:43;;;;;;;11.43;10.53;;;13.20;99.90;;;;;;4886811;29;20228;-82
2022/11/10 09:07:28;;;;;;;10.67;9.87;;;13.10;99.90;;;;;;4879833;29;20341;-81
2022/11/10 09:10:16;;;;;;;11.50;10.70;;;13.00;99.90;;;;;;4887336;29;20286;-82
2022/11/10 09:13:03;;;;;;;11.70;10.90;;;12.90;99.90;;;;;;4882329;29;20607;-82
2022/11/10 09:15:48;;;;;;;10.60;9.90;;;12.80;99.90;;;;;;4883326;29;20223;-82
2022/11/10 09:18:34;;;;;;;8.80;8.17;;;12.70;99.90;;;;;;4875229;29;20255;-82
2022/11/10 09:21:19;;;;;;;10.30;9.60;;;12.70;99.90;;;;;;4875485;29;20644;-82
2022/11/10 09:24:05;;;;;;;6.63;4.00;;;12.70;99.90;;;;;;4876241;29;20213;-81
2022/11/10 09:26:52;;;;;;;6.27;3.80;;;12.80;99.90;;;;;;4885974;29;20332;-83
2022/11/10 09:29:37;;;;;;;4.30;3.60;;;12.80;99.90;;;;;;4880776;29;20295;-79
2022/11/10 09:32:23;;;;;;;13.03;12.13;;;12.70;99.90;;;;;;4879588;29;20238;-82
2022/11/10 09:35:08;;;;;;;4.17;3.77;;;12.70;99.90;;;;;;4878463;29;20219;-82
2022/11/10 09:37:54;;;;;;;5.27;3.73;;;12.60;99.90;;;;;;4878107;29;20293;-82
2022/11/10 09:40:54;;;;;;;4.23;3.60;;;12.60;99.90;;;;;;4881035;29;20235;-81
2022/11/10 09:43:45;;;;;;;4.53;3.60;;;12.70;99.90;;;;;;4878077;29;20219;-82
2022/11/10 09:46:35;;;;;;;4.43;3.30;;;12.80;99.90;;;;;;4884652;29;20215;-82
2022/11/10 09:49:31;;;;;;;3.67;3.10;;;12.80;99.90;;;;;;4877010;29;20212;-81
2022/11/10 09:52:17;;;;;;;4.03;3.60;;;12.90;99.90;;;;;;4878033;29;20314;-82
2022/11/10 09:55:17;;;;;;;10.57;9.87;;;12.90;99.90;;;;;;4876296;29;20293;-82
2022/11/10 09:58:03;;;;;;;4.57;4.10;;;13.00;99.90;;;;;;4874916;29;20261;-81
2022/11/10 10:00:59;;;;;;;7.87;7.27;;;12.90;99.90;;;;;;4886265;29;20236;-82
2022/11/10 10:03:48;;;;;;;9.50;8.80;;;13.00;99.90;;;;;;4882692;29;20759;-82
2022/11/10 10:06:42;;;;;;;11.53;10.83;;;13.00;99.90;;;;;;4879940;29;20216;-82
2022/11/10 10:09:38;;;;;;;3.67;3.30;;;13.00;99.90;;;;;;4860525;29;20197;-82
2022/11/10 10:12:44;;;;;;;4.13;3.60;;;13.10;99.90;;;;;;4865699;29;20360;-81
2022/11/10 10:15:38;;;;;;;7.97;7.37;;;13.00;99.90;;;;;;4876019;29;20215;-81
2022/11/10 10:18:33;;;;;;;8.70;8.10;;;13.10;99.90;;;;;;4875573;29;20344;-81
2022/11/10 10:21:39;;;;;;;10.67;9.87;;;13.00;99.90;;;;;;4883164;29;20255;-82
2022/11/10 10:24:29;;;;;;;10.23;9.60;;;13.00;99.90;;;;;;4885275;29;20215;-81
2022/11/10 10:27:21;;;;;;;12.13;11.23;;;12.90;99.90;;;;;;4881163;29;20205;-80
2022/11/10 10:30:12;;;;;;;11.93;11.13;;;13.00;99.90;;;;;;4879955;29;20209;-80
2022/11/10 10:33:03;;;;;;;10.80;9.90;;;12.90;99.90;;;;;;4880941;29;20258;-80
2022/11/10 10:35:50;;;;;;;11.93;11.13;;;12.90;99.90;;;;;;4880780;29;20747;-80
2022/11/10 10:38:39;;;;;;;12.30;11.47;;;12.80;99.90;;;;;;4883446;29;20216;-81
2022/11/10 10:41:27;;;;;;;11.90;11.10;;;12.60;99.90;;;;;;4886924;29;20242;-81
2022/11/10 10:44:15;;;;;;;4.47;4.20;;;12.60;99.90;;;;;;4885679;29;20263;-81
2022/11/10 10:47:01;;;;;;;10.60;9.97;;;12.50;99.90;;;;;;4885087;29;20670;-81
2022/11/10 10:49:47;;;;;;;8.27;7.57;;;12.40;99.90;;;;;;4882948;29;20589;-81
2022/11/10 10:52:34;;;;;;;6.80;6.30;;;;;;;;;;4883809;29;20234;-80
2022/11/10 10:55:20;;;;;;;3.07;2.87;;;12.40;99.90;;;;;;4886451;29;20213;-81
2022/11/10 10:58:19;;;;;;;3.17;2.87;;;12.50;99.90;;;;;;4885209;29;20288;-81
2022/11/10 11:01:19;;;;;;;11.80;11.03;;;12.50;99.90;;;;;;4882994;29;20281;-81
2022/11/10 11:04:24;;;;;;;6.67;6.23;;;12.60;99.90;;;;;;4880989;29;20291;-81
2022/11/10 11:07:21;;;;;;;6.50;6.00;;;12.70;99.90;;;;;;4871040;29;20211;-81
2022/11/10 11:10:19;;;;;;;5.83;3.27;;;12.70;99.90;;;;;;4869665;29;20623;-81
2022/11/10 11:13:16;;;;;;;8.47;7.87;;;12.70;99.90;;;;;;4869456;29;20261;-81
2022/11/10 11:16:02;;;;;;;5.50;5.00;;;12.70;99.90;;;;;;4880980;29;20689;-81
2022/11/10 11:18:48;;;;;;;4.90;4.27;;;12.80;99.90;;;;;;4882120;29;20215;-81
2022/11/10 11:21:43;;;;;;;9.50;8.83;;;12.70;99.90;;;;;;4882084;29;20266;-81
2022/11/10 11:24:36;;;;;;;3.17;2.90;;;12.70;99.90;;;;;;4881920;29;20216;-81
2022/11/10 11:27:32;;;;;;;6.10;5.60;;;12.70;99.90;;;;;;4885354;29;20220;-81
2022/11/10 11:30:19;;;;;;;8.60;8.07;;;12.80;99.90;;;;;;4885178;29;20223;-81
2022/11/10 11:33:14;;;;;;;8.27;7.60;;;12.80;99.90;;;;;;4883944;29;20268;-81
2022/11/10 11:36:09;;;;;;;5.43;5.00;;;12.90;99.90;;;;;;4883168;29;20207;-81
2022/11/10 11:39:03;;;;;;;8.77;8.17;;;12.90;99.90;;;;;;4882023;29;20736;-81
2022/11/10 11:41:57;;;;;;;6.27;5.90;;;13.00;99.90;;;;;;4881060;29;20235;-81
2022/11/10 11:45:04;;;;;;;5.17;4.67;;;12.90;99.90;;;;;;4883650;29;20205;-81
2022/11/10 11:48:04;;;;;;;11.43;10.73;;;13.00;99.90;;;;;;4881191;29;20583;-81
2022/11/10 11:50:54;;;;;;;7.87;7.40;;;13.10;99.90;;;;;;4881022;29;20379;-81
2022/11/10 11:53:54;;;;;;;2.90;2.60;;;13.10;99.90;;;;;;4883386;29;20223;-82
2022/11/10 11:56:42;;;;;;;10.23;9.57;;;13.20;99.90;;;;;;4883636;29;20408;-81
2022/11/10 11:59:53;;;;;;;4.50;4.20;;;13.30;99.90;;;;;;4881725;29;20228;-80
2022/11/10 12:03:18;;;;;;;2.83;2.55;;;13.40;99.90;;;;;;4846350;29;1083343;-81
2022/11/10 12:06:39;;;;;;;3.67;2.60;;;13.30;99.90;;;;;;4865595;29;20599;-81
2022/11/10 12:09:36;;;;;;;4.10;2.90;;;13.40;99.90;;;;;;4886048;29;20223;-81
2022/11/10 12:12:49;;;;;;;3.00;2.70;;;13.40;99.90;;;;;;4888572;29;20251;-82
2022/11/10 12:15:44;;;;;;;3.23;3.07;;;13.50;99.90;;;;;;4888669;29;20260;-82
2022/11/10 12:18:36;;;;;;;4.47;3.00;;;13.50;99.90;;;;;;4884223;29;20684;-81
2022/11/10 12:21:25;;;;;;;2.60;2.40;;;13.40;99.90;;;;;;4886518;29;20241;-81
2022/11/10 12:24:25;;;;;;;8.90;8.20;;;13.40;99.90;;;;;;4886140;29;20204;-81
2022/11/10 12:27:15;;;;;;;11.10;10.40;;;13.40;99.90;;;;;;4883564;29;20237;-81
2022/11/10 12:30:04;;;;;;;10.77;10.07;;;13.30;99.90;;;;;;4881815;29;20216;-82
2022/11/10 12:32:53;;;;;;;10.63;10.03;;;13.30;99.90;;;;;;4888827;29;20231;-82
2022/11/10 12:35:43;;;;;;;10.70;10.00;;;13.30;99.90;;;;;;4880191;29;20205;-82
2022/11/10 12:38:40;;;;;;;9.93;9.33;;;13.30;99.90;;;;;;4881268;29;20677;-81
2022/11/10 12:41:32;;;;;;;10.13;9.33;;;13.30;99.90;;;;;;4890923;29;20243;-81
2022/11/10 12:44:24;;;;;;;8.73;8.23;;;13.30;99.90;;;;;;4891131;29;20292;-82
2022/11/10 12:47:16;;;;;;;8.90;8.20;;;13.40;99.90;;;;;;4887853;29;20213;-83
2022/11/10 12:50:22;;;;;;;9.70;9.03;;;13.40;99.90;;;;;;4883513;29;20228;-84
2022/11/10 12:53:17;;;;;;;9.10;8.50;;;13.40;99.90;;;;;;4885473;29;20203;-85
2022/11/10 12:56:08;;;;;;;8.70;8.20;;;13.40;99.90;;;;;;4881614;29;20208;-85
2022/11/10 12:59:21;;;;;;;7.80;7.40;;;13.50;99.90;;;;;;4885359;29;20592;-86
2022/11/10 13:02:22;;;;;;;8.77;8.17;;;13.50;99.90;;;;;;4887081;29;20740;-86
2022/11/10 13:05:26;;;;;;;8.70;8.07;;;13.50;99.90;;;;;;4895911;29;20603;-86
2022/11/10 13:08:22;;;;;;;8.67;8.17;;;13.50;99.90;;;;;;4886562;29;20257;-86
2022/11/10 13:11:23;;;;;;;8.57;8.07;;;13.60;99.90;;;;;;4887712;29;20736;-86
2022/11/10 13:14:22;;;;;;;8.60;8.00;;;13.60;99.90;;;;;;4872633;29;20216;-83
2022/11/10 13:17:09;;;;;;;8.50;7.80;;;13.60;99.90;;;;;;4895585;29;20573;-86
2022/11/10 13:19:55;;;;;;;8.93;8.40;;;13.60;99.90;;;;;;4884175;29;20205;-86
2022/11/10 13:22:41;;;;;;;8.23;7.73;;;13.60;99.90;;;;;;4873780;29;20344;-86
2022/11/10 13:25:54;;;;;;;7.33;6.93;;;13.60;99.90;;;;;;4882786;29;20219;-86
2022/11/10 13:29:00;;;;;;;8.73;8.13;;;13.60;99.90;;;;;;4888375;29;20222;-82
2022/11/10 13:31:54;;;;;;;10.00;9.50;;;13.50;99.90;;;;;;4877210;29;20737;-82
2022/11/10 13:34:41;;;;;;;10.30;9.80;;;13.50;99.90;;;;;;4887065;29;20215;-83
2022/11/10 13:37:49;;;;;;;9.70;9.20;;;13.50;99.90;;;;;;4888562;29;20323;-83
2022/11/10 13:40:39;;;;;;;9.83;9.23;;;13.60;99.90;;;;;;4881426;29;20224;-83
2022/11/10 13:43:27;;;;;;;9.80;9.30;;;13.50;99.90;;;;;;4883848;29;20256;-83
2022/11/10 13:46:13;;;;;;;10.40;9.73;;;13.40;99.90;;;;;;4885453;29;20216;-83
2022/11/10 13:49:30;;;;;;;10.73;10.13;;;13.40;99.90;;;;;;4885973;29;20219;-83
2022/11/10 13:52:20;;;;;;;10.30;9.70;;;13.40;99.90;;;;;;4888652;29;20373;-82
2022/11/10 13:55:19;;;;;;;9.47;8.87;;;13.30;99.90;;;;;;4885628;29;20215;-82
2022/11/10 13:58:07;;;;;;;10.07;9.40;;;13.30;99.90;;;;;;4885353;29;20260;-83
2022/11/10 14:01:24;;;;;;;10.70;10.10;;;13.30;99.90;;;;;;4875044;29;20282;-83
2022/11/10 14:04:40;;;;;;;10.03;9.43;;;13.30;99.90;;;;;;4888851;29;20212;-83
2022/11/10 14:07:30;;;;;;;9.70;9.20;;;13.30;99.90;;;;;;4888765;29;20235;-84
2022/11/10 14:10:19;;;;;;;7.30;6.70;;;13.30;99.90;;;;;;4881722;29;20212;-84
2022/11/10 14:13:11;;;;;;;12.03;11.23;;;13.30;99.90;;;;;;4889372;29;20217;-84
2022/11/10 14:15:57;;;;;;;10.73;10.03;;;13.20;99.90;;;;;;4884521;29;20215;-83
2022/11/10 14:18:49;;;;;;;10.20;9.60;;;13.20;99.90;;;;;;4892136;29;20218;-84
2022/11/10 14:21:42;;;;;;;10.00;9.47;;;13.20;99.90;;;;;;4885110;29;20219;-85
2022/11/10 14:24:30;;;;;;;9.77;9.17;;;13.20;99.90;;;;;;4884200;29;20327;-85
2022/11/10 14:27:23;;;;;;;9.90;9.30;;;13.20;99.90;;;;;;4876327;29;20229;-83
2022/11/10 14:30:23;;;;;;;8.83;8.23;;;13.20;99.90;;;;;;4892238;29;20226;-84
2022/11/10 14:33:12;;;;;;;9.80;9.10;;;13.10;99.90;;;;;;4884923;29;20643;-84
2022/11/10 14:36:01;;;;;;;9.70;9.00;;;13.10;99.90;;;;;;4888010;29;20212;-84
2022/11/10 14:38:47;;;;;;;4.50;4.20;;;13.00;99.90;;;;;;4883142;29;20223;-84
2022/11/10 14:41:33;;;;;;;9.80;9.20;;;13.00;99.90;;;;;;4872641;29;20267;-84
2022/11/10 14:44:22;;;;;;;9.77;9.27;;;13.00;99.90;;;;;;4879491;29;20205;-83
2022/11/10 14:47:16;;;;;;;9.77;9.17;;;13.00;99.90;;;;;;4883885;29;20714;-81
2022/11/10 14:50:07;;;;;;;10.50;9.60;;;13.00;99.90;;;;;;4887853;29;20237;-83
2022/11/10 14:52:57;;;;;;;9.57;8.97;;;12.90;99.90;;;;;;4890352;29;20697;-83
2022/11/10 14:55:45;;;;;;;9.60;8.90;;;12.90;99.90;;;;;;4889107;29;20211;-83
2022/11/10 14:58:34;;;;;;;9.37;8.77;;;12.80;99.90;;;;;;4887328;29;20236;-83
2022/11/10 15:01:24;;;;;;;10.13;9.37;;;12.80;99.90;;;;;;4896219;29;20755;-83
2022/11/10 15:04:13;;;;;;;9.47;8.87;;;12.70;99.90;;;;;;4875395;29;20790;-84
2022/11/10 15:07:00;;;;;;;9.43;8.93;;;12.70;99.90;;;;;;4896629;29;20400;-84
2022/11/10 15:10:13;;;;;;;9.57;9.03;;;12.60;99.90;;;;;;4885135;29;20361;-82
2022/11/10 15:13:05;;;;;;;9.70;9.10;;;12.50;99.90;;;;;;4891596;29;20211;-81
2022/11/10 15:15:52;;;;;;;9.50;9.00;;;12.40;99.90;;;;;;4889221;29;20352;-81
2022/11/10 15:18:37;;;;;;;9.90;9.30;;;12.40;99.90;;;;;;4878866;29;20212;-83
2022/11/10 15:21:29;;;;;;;10.17;9.50;;;12.30;99.90;;;;;;4884719;29;20228;-83
2022/11/10 15:24:14;;;;;;;10.23;9.63;;;12.20;99.90;;;;;;4875977;29;20207;-83
2022/11/10 15:27:01;;;;;;;10.17;9.57;;;12.10;99.90;;;;;;4871703;29;20216;-83
2022/11/10 15:29:47;;;;;;;9.97;9.37;;;12.00;99.90;;;;;;4872678;29;20213;-83
2022/11/10 15:32:36;;;;;;;10.00;9.40;;;11.90;99.90;;;;;;4874271;29;20606;-83
2022/11/10 15:35:30;;;;;;;10.03;9.43;;;11.80;99.90;;;;;;4880618;29;20698;-83
2022/11/10 15:38:32;;;;;;;10.20;9.50;;;11.70;99.90;;;;;;4885659;29;20205;-82
2022/11/10 15:41:24;;;;;;;10.53;9.93;;;11.60;99.90;;;;;;4883919;29;20250;-81
2022/11/10 15:44:19;;;;;;;10.63;10.03;;;11.40;99.90;;;;;;4892980;29;20249;-81
2022/11/10 15:47:06;;;;;;;10.30;9.70;;;11.30;99.90;;;;;;4894138;29;20269;-82
2022/11/10 15:49:52;;;;;;;10.73;9.93;;;11.10;99.90;;;;;;4886401;29;20215;-82
2022/11/10 15:52:38;;;;;;;10.77;10.07;;;11.10;99.90;;;;;;4890459;29;20229;-83
2022/11/10 15:55:24;;;;;;;10.97;10.17;;;10.90;99.90;;;;;;4886958;29;20321;-83
2022/11/10 15:58:14;;;;;;;10.90;10.23;;;10.80;99.90;;;;;;4881897;29;20222;-83
2022/11/10 16:01:01;;;;;;;12.47;11.57;;;10.70;99.90;;;;;;4892164;29;20351;-83
2022/11/10 16:03:47;;;;;;;13.33;12.23;;;10.50;99.90;;;;;;4888686;29;20642;-83
2022/11/10 16:06:33;;;;;;;13.63;12.63;;;10.40;99.90;;;;;;4882289;29;20220;-83
2022/11/10 16:09:18;;;;;;;13.80;12.70;;;10.30;99.90;;;;;;4897000;29;20222;-82
2022/11/10 16:12:04;;;;;;;12.77;11.83;;;10.20;99.90;;;;;;4882072;29;20239;-80
2022/11/10 16:14:54;;;;;;;14.50;13.30;;;10.00;99.90;;;;;;4886873;29;20292;-79
2022/11/10 16:17:41;;;;;;;12.07;11.27;;;9.90;99.90;;;;;;4872861;29;20221;-83
2022/11/10 16:20:26;;;;;;;12.90;12.00;;;9.80;99.90;;;;;;4888444;29;20579;-82
2022/11/10 16:23:12;;;;;;;12.77;11.93;;;9.70;99.90;;;;;;4894896;29;20252;-83
2022/11/10 16:25:58;;;;;;;12.03;11.13;;;9.70;99.90;;;;;;4883540;29;20205;-82
2022/11/10 16:28:46;;;;;;;12.20;11.40;;;9.60;99.90;;;;;;4884428;29;20261;-81
2022/11/10 16:31:33;;;;;;;14.00;12.80;;;9.50;99.90;;;;;;4875504;29;20231;-82
2022/11/10 16:34:20;;;;;;;12.87;12.07;;;9.40;99.90;;;;;;4888470;29;20230;-84
2022/11/10 16:37:06;;;;;;;13.27;12.43;;;9.30;99.90;;;;;;4874145;29;20284;-83
2022/11/10 16:39:51;;;;;;;13.27;12.37;;;9.30;99.90;;;;;;4865406;29;20342;-83
2022/11/10 16:42:37;;;;;;;13.17;12.27;;;9.20;99.90;;;;;;4877013;29;20619;-82
2022/11/10 16:45:29;;;;;;;13.00;12.10;;;9.10;99.90;;;;;;4890156;29;20285;-84
2022/11/10 16:48:20;;;;;;;13.20;12.30;;;9.00;99.90;;;;;;4885635;29;20211;-82
2022/11/10 16:51:08;;;;;;;13.00;12.10;;;9.00;99.90;;;;;;4887722;29;20272;-83
2022/11/10 16:53:54;;;;;;;13.37;12.47;;;9.00;99.90;;;;;;4890678;29;20207;-83
2022/11/10 16:56:39;;;;;;;13.40;12.50;;;8.90;99.90;;;;;;4882649;29;20216;-83
2022/11/10 16:59:25;;;;;;;13.30;12.50;;;8.90;99.90;;;;;;4886866;29;20583;-82
2022/11/10 17:02:25;;;;;;;12.53;11.73;;;8.90;99.90;;;;;;4887667;29;20308;-82
2022/11/10 17:05:13;;;;;;;13.53;12.43;;;8.80;99.90;;;;;;4890763;29;20768;-82
2022/11/10 17:08:00;;;;;;;13.53;12.43;;;8.70;99.90;;;;;;4877939;29;20213;-82
2022/11/10 17:10:46;;;;;;;13.70;12.70;;;8.70;99.90;;;;;;4885470;29;20248;-82
2022/11/10 17:13:32;;;;;;;13.50;12.50;;;8.70;99.90;;;;;;4876380;29;20259;-82
2022/11/10 17:16:29;;;;;;;14.67;13.57;;;8.60;99.90;;;;;;4882935;29;20497;-82
2022/11/10 17:19:19;;;;;;;13.83;12.70;;;8.60;99.90;;;;;;4886290;29;20212;-82
2022/11/10 17:22:04;;;;;;;13.90;13.00;;;8.50;99.90;;;;;;4889959;29;20594;-81
2022/11/10 17:24:54;;;;;;;15.17;14.07;;;8.50;99.90;;;;;;4886628;29;20220;-82
2022/11/10 17:27:40;;;;;;;15.00;13.87;;;8.50;99.90;;;;;;4883642;29;20765;-82
2022/11/10 17:30:25;;;;;;;15.77;14.67;;;8.50;99.90;;;;;;4869071;29;20211;-82
2022/11/10 17:33:11;;;;;;;14.87;13.67;;;8.50;99.90;;;;;;4891813;29;20222;-82
2022/11/10 17:35:58;;;;;;;15.23;13.97;;;8.50;99.90;;;;;;4875224;29;20282;-82
2022/11/10 17:38:44;;;;;;;14.77;13.67;;;8.50;99.90;;;;;;4881915;29;20222;-82
2022/11/10 17:41:31;;;;;;;14.87;13.87;;;8.60;99.90;;;;;;4891132;29;20728;-81
2022/11/10 17:44:18;;;;;;;15.50;14.30;;;8.60;99.90;;;;;;4880204;29;20723;-82
2022/11/10 17:47:05;;;;;;;15.40;14.20;;;8.60;99.90;;;;;;4883518;29;20223;-83